Time;durP1;ratioP1;P1;durP2;ratioP2;P2;SDS_P1;SDS_P2;PMS_P1;PMS_P2;Temp;Humidity;BMP_temperature;BMP_pressure;BME280_temperature;BME280_humidity;BME280_pressure;Samples;Min_cycle;Max_cycle;Signal;HPM_P1;HPM_P2
2023/07/05 01:38:50;;;;;;;5.47;3.72;;;14.30;99.90;;;;;;1736360;23;20339;-94
2023/07/05 01:41:30;;;;;;;6.45;3.90;;;14.30;99.90;;;;;;4933069;29;20055;-96
2023/07/05 01:44:25;;;;;;;7.50;4.20;;;14.20;99.90;;;;;;4921191;29;20098;-96
2023/07/05 01:47:08;;;;;;;7.30;4.03;;;14.20;99.90;;;;;;4935663;29;20505;-96
2023/07/05 01:50:21;;;;;;;8.82;4.07;;;14.40;99.90;;;;;;4935774;29;20039;-96
2023/07/05 01:53:12;;;;;;;8.07;4.00;;;14.10;99.90;;;;;;4934116;29;20039;-96
2023/07/05 01:56:00;;;;;;;7.78;4.40;;;14.20;99.90;;;;;;4929428;29;20089;-96
2023/07/05 01:59:04;;;;;;;10.52;4.80;;;14.20;99.90;;;;;;4955435;29;20044;-96
2023/07/05 02:31:02;;;;;;;9.73;5.30;;;13.90;99.90;;;;;;5046183;23;20094;-96
2023/07/05 02:33:46;;;;;;;7.95;5.53;;;13.90;99.90;;;;;;4917677;29;20063;-94
2023/07/05 02:39:25;;;;;;;9.55;5.35;;;13.90;99.90;;;;;;5015596;23;20050;-95
2023/07/05 02:41:53;;;;;;;7.57;5.40;;;13.90;99.90;;;;;;4921918;28;20043;-94
2023/07/05 02:44:31;;;;;;;8.55;5.75;;;13.90;99.90;;;;;;4930633;29;20051;-95
2023/07/05 02:47:26;;;;;;;8.25;6.07;;;13.70;99.90;;;;;;4951310;28;20118;-96
2023/07/05 02:50:19;;;;;;;8.05;5.72;;;13.40;99.90;;;;;;4943283;29;20062;-95
2023/07/05 02:55:51;;;;;;;9.07;5.88;;;13.80;99.90;;;;;;4936437;29;19957;-94
2023/07/05 02:58:20;;;;;;;7.30;5.67;;;13.90;99.90;;;;;;4925168;29;20090;-96
2023/07/05 03:00:52;;;;;;;8.77;5.85;;;13.70;99.90;;;;;;4941814;28;20534;-96
2023/07/05 03:03:26;;;;;;;9.02;6.05;;;13.80;99.90;;;;;;4948709;28;20075;-95
2023/07/05 03:06:14;;;;;;;11.13;6.47;;;13.80;99.90;;;;;;4938644;28;20039;-96
2023/07/05 03:12:07;;;;;;;10.68;7.07;;;14.00;99.90;;;;;;4955606;29;20115;-96
2023/07/05 03:15:41;;;;;;;;;;;;;;;;;;;;;
2023/07/05 03:18:21;;;;;;;11.95;6.90;;;13.80;99.90;;;;;;4929861;29;20048;-95
2023/07/05 03:21:08;;;;;;;9.57;7.00;;;13.00;99.90;;;;;;4929687;29;20071;-95
2023/07/05 03:23:45;;;;;;;13.02;6.90;;;13.70;99.90;;;;;;4930715;29;20051;-96
2023/07/05 03:26:18;;;;;;;8.80;6.55;;;13.70;99.90;;;;;;4928181;29;20083;-96
2023/07/05 03:29:10;;;;;;;15.52;7.07;;;13.70;99.90;;;;;;4932539;29;20121;-94
2023/07/05 03:32:07;;;;;;;10.07;6.97;;;13.70;99.90;;;;;;4912966;29;20075;-95
2023/07/05 03:34:56;;;;;;;10.15;7.40;;;13.70;99.90;;;;;;4913426;29;20059;-95
2023/07/05 03:37:45;;;;;;;8.75;7.00;;;14.00;99.90;;;;;;4925049;29;20060;-96
2023/07/05 03:40:27;;;;;;;11.10;7.13;;;13.70;99.90;;;;;;4886780;29;20095;-95
2023/07/05 03:49:45;;;;;;;12.63;7.55;;;13.30;99.90;;;;;;4888193;29;19927;-95
2023/07/05 03:52:16;;;;;;;10.93;7.32;;;14.00;99.90;;;;;;4870202;29;20141;-95
2023/07/05 04:06:11;;;;;;;10.77;7.65;;;13.70;99.90;;;;;;4838702;29;20089;-95
2023/07/05 04:08:58;;;;;;;15.30;7.50;;;13.40;99.90;;;;;;4835723;29;20053;-95
2023/07/05 04:11:29;;;;;;;13.50;8.10;;;13.70;99.90;;;;;;4904791;29;20115;-95
2023/07/05 04:15:01;;;;;;;10.32;7.88;;;13.80;99.90;;;;;;4864072;29;20165;-95
2023/07/05 04:17:39;;;;;;;9.85;8.20;;;13.80;99.90;;;;;;4851350;29;20056;-96
2023/07/05 04:20:40;;;;;;;;;;;;;;;;;;;;;
2023/07/05 04:27:21;;;;;;;13.88;9.20;;;14.00;99.90;;;;;;4833452;29;20140;-95
2023/07/05 04:33:46;;;;;;;9.52;7.43;;;14.00;99.90;;;;;;4813829;29;20034;-95
2023/07/05 05:04:07;;;;;;;7.63;6.00;;;14.40;99.90;;;;;;4965245;29;20038;-96
2023/07/05 05:10:22;;;;;;;7.88;5.05;;;14.50;99.90;;;;;;4900663;29;20400;-96
2023/07/05 05:13:18;;;;;;;5.18;3.80;;;14.40;99.90;;;;;;4932556;29;20436;-96
2023/07/05 05:15:58;;;;;;;6.18;3.08;;;14.50;99.90;;;;;;4926775;29;20042;-94
2023/07/05 05:18:54;;;;;;;4.03;3.00;;;14.40;99.90;;;;;;4941527;29;20051;-96
2023/07/05 05:21:42;;;;;;;3.53;2.65;;;14.50;99.90;;;;;;4959104;29;20482;-96
2023/07/05 05:24:44;;;;;;;4.13;2.67;;;14.30;99.90;;;;;;4938716;28;20063;-96
2023/07/05 05:27:46;;;;;;;5.45;2.67;;;14.30;99.90;;;;;;4935217;29;20082;-96
2023/07/05 05:30:23;;;;;;;4.25;2.30;;;14.20;99.90;;;;;;4905608;29;20055;-96
2023/07/05 05:32:58;;;;;;;3.38;2.30;;;13.70;99.90;;;;;;4927548;29;20042;-95
2023/07/05 05:35:49;;;;;;;3.83;2.33;;;14.10;99.90;;;;;;4925520;29;20042;-85
2023/07/05 05:38:19;;;;;;;3.78;2.63;;;13.90;99.90;;;;;;4933792;29;20087;-96
2023/07/05 05:40:48;;;;;;;3.38;2.30;;;13.90;99.90;;;;;;4905772;29;20589;-95
2023/07/05 05:43:26;;;;;;;3.08;2.10;;;13.90;99.90;;;;;;4909894;29;20075;-95
2023/07/05 05:45:52;;;;;;;4.68;2.25;;;13.90;99.90;;;;;;4923114;29;20039;-96
2023/07/05 05:48:21;;;;;;;2.97;2.00;;;13.90;99.90;;;;;;4920346;29;20122;-96
2023/07/05 05:50:52;;;;;;;2.90;2.00;;;13.80;99.90;;;;;;4918150;29;20050;-94
2023/07/05 05:53:18;;;;;;;4.22;2.10;;;14.00;99.90;;;;;;4913274;29;20107;-89
2023/07/05 05:56:04;;;;;;;3.10;2.55;;;14.40;99.90;;;;;;4913968;29;20046;-96
2023/07/05 05:58:36;;;;;;;2.90;2.40;;;14.60;99.90;;;;;;4899312;29;20079;-96
2023/07/05 06:01:03;;;;;;;3.45;2.20;;;15.00;99.90;;;;;;4922153;29;20047;-92
2023/07/05 06:03:35;;;;;;;5.55;2.30;;;15.00;99.90;;;;;;4922667;29;20048;-96
2023/07/05 06:10:35;;;;;;;;;;;;;;;;;;;;;
2023/07/05 06:29:43;;;;;;;2.95;1.90;;;15.00;99.90;;;;;;4822040;29;20126;-95
2023/07/05 06:40:12;;;;;;;2.85;1.80;;;14.70;99.90;;;;;;4805968;29;20105;-93
2023/07/05 06:43:55;;;;;;;3.40;1.88;;;14.60;99.90;;;;;;4868460;29;20056;-95
2023/07/05 06:46:27;;;;;;;2.17;1.70;;;14.60;99.90;;;;;;4826112;29;20054;-96
2023/07/05 06:49:55;;;;;;;2.92;2.00;;;15.00;99.90;;;;;;4811020;29;20081;-96
2023/07/05 06:56:59;;;;;;;3.75;2.08;;;15.40;99.90;;;;;;4836956;29;20109;-96
2023/07/05 07:00:46;;;;;;;2.25;1.60;;;15.90;99.90;;;;;;4801449;29;20054;-96
2023/07/05 07:04:07;;;;;;;3.78;1.73;;;15.50;99.90;;;;;;4842022;29;20542;-95
2023/07/05 07:07:24;;;;;;;2.70;1.90;;;15.30;99.90;;;;;;4831091;29;20130;-96
2023/07/05 07:10:34;;;;;;;4.70;1.92;;;15.20;99.90;;;;;;4849291;29;20050;-96
2023/07/05 07:21:02;;;;;;;6.80;1.60;;;17.10;99.90;;;;;;4852599;29;20053;-96
2023/07/05 07:31:46;;;;;;;2.90;1.38;;;19.10;99.90;;;;;;4776101;30;20048;-96
2023/07/05 07:35:26;;;;;;;3.38;1.45;;;20.00;99.90;;;;;;4785987;29;20047;-96
2023/07/05 07:38:26;;;;;;;4.40;1.50;;;19.10;99.90;;;;;;4838264;29;20058;-96
2023/07/05 07:41:23;;;;;;;3.25;1.50;;;18.40;99.90;;;;;;4802218;29;20059;-96
2023/07/05 07:44:48;;;;;;;2.60;1.25;;;17.30;99.90;;;;;;4804552;29;20054;-96
2023/07/05 07:48:08;;;;;;;3.28;1.30;;;17.90;99.90;;;;;;4815954;29;20050;-94
2023/07/05 07:51:15;;;;;;;1.73;1.17;;;17.30;99.90;;;;;;4832367;29;20418;-96
2023/07/05 07:57:39;;;;;;;2.13;1.15;;;16.50;99.90;;;;;;4782123;29;20047;-96
2023/07/05 08:00:15;;;;;;;2.47;0.90;;;15.60;99.90;;;;;;4794045;29;20065;-96
2023/07/05 08:02:57;;;;;;;1.25;0.77;;;15.60;99.90;;;;;;4825602;29;20060;-96
2023/07/05 08:05:48;;;;;;;1.67;0.90;;;15.30;99.90;;;;;;4830939;29;20053;-96
2023/07/05 08:08:37;;;;;;;;;;;;;;;;;;;;;
2023/07/05 08:11:11;;;;;;;3.05;1.10;;;14.60;99.90;;;;;;4885170;29;20033;-95
2023/07/05 08:13:55;;;;;;;2.67;0.90;;;14.50;99.90;;;;;;4865881;29;20056;-95
2023/07/05 08:16:23;;;;;;;1.50;0.70;;;14.30;99.90;;;;;;4858014;29;20397;-93
2023/07/05 08:18:59;;;;;;;1.00;0.57;;;14.10;99.90;;;;;;4881516;29;20672;-94
2023/07/05 08:21:28;;;;;;;0.70;0.40;;;14.00;99.90;;;;;;4881573;29;20490;-93
2023/07/05 08:23:57;;;;;;;1.10;0.60;;;13.80;99.90;;;;;;4852123;29;20135;-94
2023/07/05 08:26:34;;;;;;;1.13;0.50;;;13.60;99.90;;;;;;4866590;29;20037;-93
2023/07/05 08:29:00;;;;;;;2.05;0.50;;;13.80;99.90;;;;;;4875189;29;20497;-94
2023/07/05 08:31:32;;;;;;;0.45;0.30;;;13.30;99.90;;;;;;4864723;29;20050;-93
2023/07/05 08:34:01;;;;;;;0.80;0.30;;;13.00;99.90;;;;;;4865974;29;20040;-92
2023/07/05 08:36:35;;;;;;;0.50;0.30;;;13.10;99.90;;;;;;4864663;29;20064;-95
2023/07/05 08:39:07;;;;;;;2.25;0.50;;;12.90;99.90;;;;;;4865142;29;20056;-93
2023/07/05 08:42:21;;;;;;;1.48;0.32;;;12.70;99.90;;;;;;4897121;29;20463;-93
2023/07/05 08:45:10;;;;;;;0.75;0.40;;;12.50;99.90;;;;;;4859737;29;20056;-95
2023/07/05 08:47:50;;;;;;;;;;;12.40;99.90;;;;;;4881880;29;20139;-95
2023/07/05 08:51:01;;;;;;;0.35;0.20;;;12.30;99.90;;;;;;4874890;29;19919;-95
2023/07/05 08:53:41;;;;;;;0.22;0.20;;;12.30;99.90;;;;;;4866313;29;20100;-95
2023/07/05 08:56:20;;;;;;;0.65;0.30;;;11.90;99.90;;;;;;4886667;29;20043;-95
2023/07/05 08:59:30;;;;;;;2.33;0.40;;;12.10;99.90;;;;;;4919104;29;20052;-95
2023/07/05 09:02:07;;;;;;;;;;;;;;;;;;;;;
2023/07/05 09:04:47;;;;;;;1.80;0.30;;;12.10;99.90;;;;;;4931307;29;20046;-93
2023/07/05 09:07:48;;;;;;;1.33;0.28;;;11.90;99.90;;;;;;4919882;29;20402;-94
2023/07/05 09:10:43;;;;;;;3.03;0.40;;;12.10;99.90;;;;;;4920901;29;20568;-95
2023/07/05 09:13:30;;;;;;;1.63;0.38;;;12.20;99.90;;;;;;4913666;29;20110;-94
2023/07/05 09:16:21;;;;;;;1.45;0.60;;;12.10;99.90;;;;;;4918789;29;20071;-95
2023/07/05 09:22:41;;;;;;;2.25;0.55;;;12.10;99.90;;;;;;4892941;29;20040;-95
2023/07/05 09:25:22;;;;;;;3.17;0.68;;;12.10;99.90;;;;;;4884241;29;20131;-96
2023/07/05 09:28:17;;;;;;;2.03;0.60;;;12.20;99.90;;;;;;4917508;29;20075;-95
2023/07/05 09:30:43;;;;;;;2.00;0.70;;;12.20;99.90;;;;;;4924202;29;20099;-94
2023/07/05 09:33:36;;;;;;;3.07;0.67;;;12.30;99.90;;;;;;4928580;29;20039;-96
2023/07/05 09:36:16;;;;;;;3.55;0.63;;;11.90;99.90;;;;;;4929167;29;20494;-94
2023/07/05 09:39:00;;;;;;;2.88;0.50;;;12.30;99.90;;;;;;4898791;28;20044;-93
2023/07/05 09:41:39;;;;;;;2.08;0.63;;;12.40;99.90;;;;;;4919726;29;20420;-93
2023/07/05 09:44:09;;;;;;;3.70;0.80;;;12.50;99.90;;;;;;4920584;29;20170;-95
2023/07/05 09:46:37;;;;;;;3.67;0.70;;;12.60;99.90;;;;;;4905888;29;20058;-95
2023/07/05 09:49:12;;;;;;;3.85;0.80;;;12.60;99.90;;;;;;4918745;29;20066;-94
2023/07/05 09:51:48;;;;;;;5.55;0.90;;;12.70;99.90;;;;;;4923837;28;20494;-95
2023/07/05 09:54:57;;;;;;;12.05;0.70;;;12.90;99.90;;;;;;4922416;29;20136;-94
2023/07/05 09:57:41;;;;;;;;;;;;;;;;;;;;;
2023/07/05 10:00:31;;;;;;;6.38;0.82;;;12.90;99.90;;;;;;4940401;29;20487;-93
2023/07/05 10:03:09;;;;;;;6.13;0.73;;;13.00;99.90;;;;;;4917370;29;20047;-93
2023/07/05 10:05:34;;;;;;;1.83;0.52;;;13.10;99.90;;;;;;4922186;29;20046;-93
2023/07/05 10:08:04;;;;;;;4.22;0.40;;;13.20;99.90;;;;;;4908428;29;20039;-95
2023/07/05 10:10:36;;;;;;;2.15;0.30;;;13.20;99.90;;;;;;4914753;29;20075;-92
2023/07/05 10:13:25;;;;;;;4.63;0.25;;;13.20;99.90;;;;;;4911019;29;20061;-92
2023/07/05 10:15:57;;;;;;;1.70;0.30;;;13.30;99.90;;;;;;4922822;29;20102;-93
2023/07/05 10:18:34;;;;;;;3.00;0.43;;;13.30;99.90;;;;;;4909160;29;20047;-94
2023/07/05 10:21:09;;;;;;;1.38;0.30;;;13.40;99.90;;;;;;4919760;29;20031;-93
2023/07/05 10:23:35;;;;;;;3.90;0.43;;;13.40;99.90;;;;;;4914261;29;20047;-94
2023/07/05 10:26:04;;;;;;;1.03;0.27;;;13.50;99.90;;;;;;4922237;29;20041;-92
2023/07/05 10:28:32;;;;;;;3.13;0.40;;;13.50;99.90;;;;;;4921729;29;20039;-93
2023/07/05 10:31:00;;;;;;;0.50;0.30;;;13.60;99.90;;;;;;4909257;29;20455;-91
2023/07/05 10:33:31;;;;;;;1.60;0.43;;;13.70;99.90;;;;;;4918075;29;20122;-92
2023/07/05 10:36:04;;;;;;;3.03;0.25;;;13.90;99.90;;;;;;4921832;29;20079;-92
2023/07/05 10:38:33;;;;;;;0.35;0.10;;;14.20;99.90;;;;;;4957042;29;20045;-92
2023/07/05 10:41:29;;;;;;;1.65;0.30;;;14.40;99.90;;;;;;4925305;29;20066;-93
2023/07/05 10:44:02;;;;;;;1.92;0.30;;;14.60;99.90;;;;;;4912186;29;20050;-93
2023/07/05 10:46:29;;;;;;;1.38;0.30;;;14.60;99.90;;;;;;4913587;29;20041;-93
2023/07/05 10:48:56;;;;;;;7.13;0.32;;;14.70;99.90;;;;;;4886747;29;20047;-93
2023/07/05 10:51:23;;;;;;;;;;;14.80;99.90;;;;;;4924650;29;20122;-92
2023/07/05 10:53:55;;;;;;;3.35;0.75;;;14.90;99.90;;;;;;4947114;29;19925;-93
2023/07/05 10:56:32;;;;;;;1.70;0.32;;;15.10;99.90;;;;;;4914270;29;20046;-93
2023/07/05 10:59:45;;;;;;;2.83;0.95;;;15.20;99.90;;;;;;4924072;29;20523;-92
2023/07/05 11:02:32;;;;;;;0.82;0.20;;;15.30;99.90;;;;;;4883053;29;20066;-92
2023/07/05 11:04:58;;;;;;;0.55;0.20;;;15.50;99.90;;;;;;4940827;29;20427;-93
2023/07/05 11:07:25;;;;;;;0.75;0.30;;;15.60;99.90;;;;;;4919740;29;20036;-93
2023/07/05 11:09:51;;;;;;;6.78;0.20;;;15.90;99.90;;;;;;4918945;29;20043;-91
2023/07/05 11:12:24;;;;;;;1.02;0.20;;;16.10;99.90;;;;;;4892850;29;20509;-93
2023/07/05 11:14:51;;;;;;;1.80;0.20;;;16.40;99.90;;;;;;4935695;29;20047;-91
2023/07/05 11:17:24;;;;;;;1.13;0.30;;;16.50;99.90;;;;;;4902222;29;20046;-93
2023/07/05 11:19:50;;;;;;;2.92;0.30;;;16.60;99.90;;;;;;4920889;29;20527;-92
2023/07/05 11:22:38;;;;;;;0.70;0.15;;;16.70;99.90;;;;;;4890230;29;20375;-93
2023/07/05 11:25:04;;;;;;;1.73;0.43;;;16.80;99.90;;;;;;4922732;29;20094;-91
2023/07/05 11:27:30;;;;;;;0.85;0.20;;;17.00;99.90;;;;;;4906380;29;20074;-92
2023/07/05 11:29:58;;;;;;;0.88;0.30;;;17.10;99.90;;;;;;4921786;29;20039;-93
2023/07/05 11:32:48;;;;;;;3.13;0.63;;;17.00;99.90;;;;;;4902636;29;20050;-92
2023/07/05 11:35:42;;;;;;;0.45;0.20;;;16.90;99.90;;;;;;4918728;29;20496;-91
2023/07/05 11:38:08;;;;;;;2.63;0.57;;;16.80;99.90;;;;;;4917830;29;20035;-94
2023/07/05 11:41:01;;;;;;;0.68;0.20;;;16.80;99.90;;;;;;4890156;29;20342;-92
2023/07/05 11:43:41;;;;;;;1.20;0.30;;;16.90;99.90;;;;;;4929797;29;20055;-93
2023/07/05 11:46:46;;;;;;;0.93;0.20;;;17.00;99.90;;;;;;4918929;29;20090;-93
2023/07/05 11:49:43;;;;;;;1.00;0.40;;;16.90;99.90;;;;;;4928483;29;20054;-92
2023/07/05 11:52:15;;;;;;;2.65;0.40;;;16.90;99.90;;;;;;4938009;29;20043;-92
2023/07/05 11:55:11;;;;;;;2.22;0.47;;;17.00;99.90;;;;;;4923990;29;20518;-94
2023/07/05 11:58:08;;;;;;;2.60;0.40;;;16.80;99.90;;;;;;4923029;29;20083;-93
2023/07/05 12:00:47;;;;;;;2.95;0.75;;;16.80;99.90;;;;;;4910607;29;20059;-93
2023/07/05 12:03:15;;;;;;;1.45;0.50;;;16.80;99.90;;;;;;4912729;29;20047;-93
2023/07/05 12:05:41;;;;;;;2.88;0.60;;;17.00;99.90;;;;;;4909613;29;20466;-94
2023/07/05 12:08:21;;;;;;;2.05;0.50;;;17.00;99.90;;;;;;4912404;29;20103;-94
2023/07/05 12:11:00;;;;;;;2.25;0.40;;;17.30;99.90;;;;;;4922118;29;20055;-91
2023/07/05 12:13:35;;;;;;;1.65;0.38;;;17.10;99.90;;;;;;4917035;29;20423;-92
2023/07/05 12:16:03;;;;;;;4.53;1.08;;;17.10;99.90;;;;;;4918436;29;20644;-87
2023/07/05 12:18:30;;;;;;;2.47;0.52;;;17.00;99.90;;;;;;4916500;29;20533;-92
2023/07/05 12:20:58;;;;;;;3.00;0.57;;;16.90;99.90;;;;;;4897146;29;20048;-91
2023/07/05 12:23:30;;;;;;;4.10;0.80;;;16.70;99.90;;;;;;4899037;29;20091;-91
2023/07/05 12:25:58;;;;;;;3.97;0.95;;;16.40;99.90;;;;;;4909785;29;20051;-92
2023/07/05 12:28:29;;;;;;;4.25;0.90;;;16.10;99.90;;;;;;4906867;29;20036;-91
2023/07/05 12:31:01;;;;;;;3.03;0.88;;;15.80;99.90;;;;;;4916131;29;20098;-93
2023/07/05 12:33:30;;;;;;;1.85;0.70;;;15.60;99.90;;;;;;4918168;29;20070;-92
2023/07/05 12:36:18;;;;;;;3.13;0.90;;;15.40;99.90;;;;;;4915068;29;20090;-92
2023/07/05 12:39:16;;;;;;;1.88;0.68;;;15.10;99.90;;;;;;4917544;29;20487;-91
2023/07/05 12:41:43;;;;;;;2.35;0.70;;;15.00;99.90;;;;;;4946515;29;20042;-91
2023/07/05 12:44:23;;;;;;;2.08;0.60;;;14.90;99.90;;;;;;4913746;29;20130;-93
2023/07/05 12:46:49;;;;;;;3.38;0.77;;;14.70;99.90;;;;;;4907019;29;20483;-91
2023/07/05 12:49:48;;;;;;;5.50;1.48;;;14.60;99.90;;;;;;4895778;29;20051;-92
2023/07/05 12:52:38;;;;;;;2.28;0.75;;;14.40;99.90;;;;;;4887254;29;20055;-94
2023/07/05 12:55:52;;;;;;;3.60;0.85;;;14.50;99.90;;;;;;4893257;29;20040;-93
2023/07/05 12:58:23;;;;;;;3.05;1.00;;;14.20;99.90;;;;;;4832279;29;20798;-90
2023/07/05 13:00:54;;;;;;;2.90;0.70;;;14.20;99.90;;;;;;4834535;29;20054;-90
2023/07/05 13:03:24;;;;;;;4.88;2.15;;;14.10;99.90;;;;;;4890278;29;20044;-92
2023/07/05 13:05:52;;;;;;;3.08;0.90;;;14.00;99.90;;;;;;4915559;29;20791;-92
2023/07/05 13:08:18;;;;;;;;;;;14.00;99.90;;;;;;4913338;29;20044;-92
2023/07/05 13:10:46;;;;;;;2.85;0.82;;;13.90;99.90;;;;;;4943492;29;19919;-91
2023/07/05 13:13:34;;;;;;;5.03;1.08;;;13.80;99.90;;;;;;4913016;29;20412;-92
2023/07/05 13:16:19;;;;;;;6.72;1.95;;;13.90;99.90;;;;;;4915795;29;20040;-92
2023/07/05 13:19:08;;;;;;;5.22;1.40;;;13.80;99.90;;;;;;4908197;29;20032;-92
2023/07/05 13:21:49;;;;;;;5.25;1.58;;;13.80;99.90;;;;;;4915988;29;20032;-95
2023/07/05 13:24:35;;;;;;;5.40;1.98;;;13.70;99.90;;;;;;4918690;29;20075;-92
2023/07/05 13:27:02;;;;;;;6.07;1.63;;;13.70;99.90;;;;;;4929786;29;20043;-91
2023/07/05 13:29:35;;;;;;;6.30;1.98;;;13.60;99.90;;;;;;4916196;29;20063;-94
2023/07/05 13:32:02;;;;;;;5.13;1.38;;;13.60;99.90;;;;;;4912850;29;20036;-91
2023/07/05 13:34:28;;;;;;;4.43;1.40;;;13.50;99.90;;;;;;4895389;29;20108;-92
2023/07/05 13:37:11;;;;;;;5.57;1.33;;;13.50;99.90;;;;;;4917323;29;20044;-93
2023/07/05 13:39:37;;;;;;;5.63;1.38;;;13.40;99.90;;;;;;4918273;29;20043;-92
2023/07/05 13:42:06;;;;;;;4.15;1.10;;;13.30;99.90;;;;;;4915367;29;20057;-93
2023/07/05 13:44:32;;;;;;;4.82;1.40;;;13.30;99.90;;;;;;4916896;29;20062;-93
2023/07/05 13:46:59;;;;;;;8.07;1.75;;;13.30;99.90;;;;;;4902446;29;20048;-92
2023/07/05 13:49:26;;;;;;;7.93;1.87;;;13.30;99.90;;;;;;4914868;29;20040;-91
2023/07/05 13:51:56;;;;;;;5.07;1.63;;;13.20;99.90;;;;;;4893625;29;20035;-92
2023/07/05 13:54:22;;;;;;;3.40;1.52;;;13.70;99.90;;;;;;4914328;29;20040;-90
2023/07/05 13:56:48;;;;;;;4.47;1.50;;;13.10;99.90;;;;;;4911579;29;20039;-94
2023/07/05 13:59:20;;;;;;;5.22;1.30;;;13.00;99.90;;;;;;4900193;29;20497;-92
2023/07/05 14:01:50;;;;;;;2.85;1.08;;;13.20;99.90;;;;;;4911548;29;20058;-92
2023/07/05 14:04:17;;;;;;;6.18;1.38;;;13.30;99.90;;;;;;4913210;29;20164;-94
2023/07/05 14:06:43;;;;;;;8.20;1.17;;;13.60;99.90;;;;;;4918227;29;20118;-93
2023/07/05 14:09:10;;;;;;;6.20;1.55;;;13.30;99.90;;;;;;4920749;29;20131;-93
2023/07/05 14:11:37;;;;;;;;;;;13.30;99.90;;;;;;4916759;29;20035;-94
2023/07/05 14:14:04;;;;;;;5.13;1.38;;;13.30;99.90;;;;;;4914798;29;19965;-93
2023/07/05 14:16:30;;;;;;;4.53;1.43;;;12.90;99.90;;;;;;4912484;29;20055;-92
2023/07/05 14:18:56;;;;;;;3.42;1.05;;;13.40;99.90;;;;;;4897853;29;20511;-92
2023/07/05 14:21:38;;;;;;;2.40;1.05;;;13.40;99.90;;;;;;4912875;29;20110;-93
2023/07/05 14:24:12;;;;;;;2.90;1.20;;;13.40;99.90;;;;;;4904801;29;20048;-92
2023/07/05 14:26:38;;;;;;;5.88;1.33;;;13.50;99.90;;;;;;4905247;29;20047;-93
2023/07/05 14:29:04;;;;;;;2.97;1.10;;;13.50;99.90;;;;;;4899390;29;20043;-93
2023/07/05 14:31:31;;;;;;;3.97;1.23;;;13.50;99.90;;;;;;4887720;29;20043;-93
2023/07/05 14:33:57;;;;;;;;;;;13.70;99.90;;;;;;4906743;29;20130;-93
2023/07/05 14:36:23;;;;;;;4.22;1.50;;;13.70;99.90;;;;;;4902017;29;19922;-95
2023/07/05 14:38:54;;;;;;;7.45;1.77;;;13.70;99.90;;;;;;4900833;29;20134;-93
2023/07/05 14:41:23;;;;;;;7.57;1.83;;;13.90;99.90;;;;;;4898823;29;20047;-92
2023/07/05 14:43:55;;;;;;;6.45;1.58;;;14.00;99.90;;;;;;4914103;29;20047;-93
2023/07/05 14:46:28;;;;;;;6.50;1.50;;;13.90;99.90;;;;;;4918321;29;20611;-94
2023/07/05 14:48:54;;;;;;;4.10;1.20;;;14.00;99.90;;;;;;4911822;29;20040;-94
2023/07/05 14:51:24;;;;;;;3.45;1.05;;;14.10;99.90;;;;;;4918707;29;20110;-91
2023/07/05 14:53:50;;;;;;;4.03;1.30;;;14.20;99.90;;;;;;4916715;29;20046;-93
2023/07/05 14:56:16;;;;;;;4.53;1.40;;;14.30;99.90;;;;;;4919982;29;20599;-92
2023/07/05 14:58:42;;;;;;;5.95;1.35;;;14.30;99.90;;;;;;4899650;29;20087;-95
2023/07/05 15:01:14;;;;;;;5.07;1.48;;;14.40;99.90;;;;;;4921215;29;20693;-92
2023/07/05 15:03:50;;;;;;;4.10;1.50;;;14.50;99.90;;;;;;4920767;29;20742;-94
2023/07/05 15:06:18;;;;;;;3.42;1.20;;;14.50;99.90;;;;;;4920196;29;20047;-92
2023/07/05 15:08:48;;;;;;;3.63;1.42;;;14.10;99.90;;;;;;4920252;29;20075;-93
2023/07/05 15:11:15;;;;;;;3.28;1.10;;;14.40;99.90;;;;;;4920872;29;20098;-92
2023/07/05 15:13:44;;;;;;;2.83;0.90;;;14.40;99.90;;;;;;4918996;29;20395;-93
2023/07/05 15:16:28;;;;;;;4.22;1.10;;;14.30;99.90;;;;;;4917397;29;20562;-93
2023/07/05 15:18:57;;;;;;;4.18;1.27;;;14.30;99.90;;;;;;4919672;29;20039;-91
2023/07/05 15:21:37;;;;;;;5.20;1.30;;;14.30;99.90;;;;;;4919454;29;20081;-93
2023/07/05 15:27:51;;;;;;;4.30;1.20;;;14.40;99.90;;;;;;4867935;29;20049;-92
2023/07/05 15:30:18;;;;;;;1.85;0.90;;;14.50;99.90;;;;;;4911381;29;20134;-94
2023/07/05 15:32:47;;;;;;;6.80;1.10;;;14.10;99.90;;;;;;4921640;29;20039;-93
2023/07/05 15:35:19;;;;;;;4.63;1.10;;;14.50;99.90;;;;;;4921195;29;20047;-93
2023/07/05 15:37:45;;;;;;;2.63;0.90;;;14.50;99.90;;;;;;4922638;29;20051;-93
2023/07/05 15:40:17;;;;;;;4.37;1.10;;;14.50;99.90;;;;;;4920510;29;20047;-94
2023/07/05 15:42:50;;;;;;;2.47;1.08;;;14.50;99.90;;;;;;4922689;29;20073;-95
2023/07/05 15:45:24;;;;;;;3.55;0.90;;;14.50;99.90;;;;;;4923644;29;20134;-94
2023/07/05 15:48:05;;;;;;;3.03;1.00;;;14.60;99.90;;;;;;4923481;29;20035;-95
2023/07/05 15:50:34;;;;;;;4.25;1.17;;;14.60;99.90;;;;;;4913684;29;20091;-94
2023/07/05 15:53:00;;;;;;;2.13;1.08;;;14.90;99.90;;;;;;4906307;28;20039;-92
2023/07/05 15:55:26;;;;;;;3.97;1.10;;;14.70;99.90;;;;;;4920228;29;20050;-94
2023/07/05 15:58:19;;;;;;;1.90;0.80;;;14.80;99.90;;;;;;4941887;29;20078;-94
2023/07/05 16:00:49;;;;;;;8.40;1.17;;;14.80;99.90;;;;;;4915379;29;20400;-92
2023/07/05 16:03:20;;;;;;;4.32;1.00;;;14.60;99.90;;;;;;4912527;29;20047;-92
2023/07/05 16:05:47;;;;;;;1.90;1.10;;;14.10;99.90;;;;;;4919471;29;20040;-93
2023/07/05 16:08:13;;;;;;;4.05;1.10;;;14.60;99.90;;;;;;4910661;29;20044;-92
2023/07/05 16:10:49;;;;;;;3.83;1.30;;;14.30;99.90;;;;;;4911969;29;20064;-92
2023/07/05 16:13:19;;;;;;;4.85;1.38;;;14.70;99.90;;;;;;4917200;29;20063;-93
2023/07/05 16:16:34;;;;;;;3.08;1.10;;;14.00;99.90;;;;;;4905044;29;20058;-92
2023/07/05 16:22:39;;;;;;;2.17;0.90;;;14.80;99.90;;;;;;4832325;29;20061;-93
2023/07/05 16:25:16;;;;;;;3.22;1.00;;;14.80;99.90;;;;;;4846585;29;20108;-91
2023/07/05 16:27:45;;;;;;;3.22;1.15;;;14.90;99.90;;;;;;4913892;29;20724;-93
2023/07/05 16:30:11;;;;;;;3.50;1.13;;;14.90;99.90;;;;;;4898582;29;20137;-92
2023/07/05 16:36:27;;;;;;;2.55;1.20;;;14.80;99.90;;;;;;4892913;29;20063;-93
2023/07/05 16:38:56;;;;;;;3.90;1.27;;;14.80;99.90;;;;;;4920170;29;20051;-93
2023/07/05 16:41:23;;;;;;;3.72;1.50;;;14.90;99.90;;;;;;4899628;29;20508;-93
2023/07/05 16:43:50;;;;;;;2.95;1.05;;;14.90;99.90;;;;;;4882704;29;20044;-93
2023/07/05 16:46:17;;;;;;;3.33;0.88;;;15.00;99.90;;;;;;4919395;29;20078;-94
2023/07/05 16:48:43;;;;;;;2.50;0.90;;;15.00;99.90;;;;;;4910599;29;20043;-92
2023/07/05 16:51:12;;;;;;;3.92;1.30;;;15.10;99.90;;;;;;4891878;29;20048;-94
2023/07/05 16:53:55;;;;;;;3.33;1.10;;;15.10;99.90;;;;;;4913922;29;20047;-94
2023/07/05 16:56:37;;;;;;;6.18;1.27;;;15.20;99.90;;;;;;4916785;29;20052;-93
2023/07/05 17:16:30;;;;;;;2.47;1.02;;;15.30;99.90;;;;;;4895158;29;20044;-92
2023/07/05 17:22:27;;;;;;;3.38;0.93;;;15.20;99.90;;;;;;4778263;29;20066;-92
2023/07/05 17:26:10;;;;;;;;;;;;;;;;;;;;;
2023/07/05 17:35:43;;;;;;;6.00;1.08;;;15.20;99.90;;;;;;4795665;29;20060;-94
2023/07/05 17:38:16;;;;;;;5.47;1.30;;;15.20;99.90;;;;;;4800857;29;20129;-91
2023/07/05 17:45:02;;;;;;;3.20;1.10;;;15.40;99.90;;;;;;4819640;29;20115;-93
2023/07/05 17:48:31;;;;;;;4.47;0.95;;;15.30;99.90;;;;;;4794943;29;20058;-95
2023/07/05 17:51:05;;;;;;;5.43;1.33;;;14.90;99.90;;;;;;4757782;30;20054;-94
2023/07/05 17:53:31;;;;;;;2.28;0.85;;;15.20;99.90;;;;;;4787012;29;20046;-90
2023/07/05 17:56:00;;;;;;;3.00;0.82;;;15.40;99.90;;;;;;4787071;29;20050;-92
2023/07/05 17:58:52;;;;;;;2.40;1.00;;;15.40;99.90;;;;;;4844183;29;20057;-94
2023/07/05 18:01:24;;;;;;;4.35;1.30;;;15.10;99.90;;;;;;4863553;29;20056;-92
2023/07/05 18:04:20;;;;;;;3.08;1.00;;;15.40;99.90;;;;;;4883073;29;20092;-94
2023/07/05 18:06:51;;;;;;;4.15;1.13;;;15.30;99.90;;;;;;4881011;29;20141;-93
2023/07/05 18:09:28;;;;;;;3.85;1.20;;;15.30;99.90;;;;;;4882581;29;20364;-93
2023/07/05 18:11:54;;;;;;;2.38;0.90;;;15.30;99.90;;;;;;4906202;29;20671;-93
2023/07/05 18:14:41;;;;;;;3.50;1.33;;;15.30;99.90;;;;;;4902418;29;20131;-94
2023/07/05 18:17:26;;;;;;;3.38;1.15;;;15.30;99.90;;;;;;4904282;29;20060;-94
2023/07/05 18:24:21;;;;;;;1.80;0.80;;;15.10;99.90;;;;;;4838726;29;20621;-93
2023/07/05 18:49:49;;;;;;;1.67;0.70;;;14.90;99.90;;;;;;4682827;30;20046;-91
2023/07/05 18:53:08;;;;;;;;;;;;;;;;;;;;;
2023/07/05 18:56:51;;;;;;;;;;;;;;;;;;;;;
2023/07/05 19:12:41;;;;;;;2.50;1.00;;;14.80;99.90;;;;;;4745134;30;20479;-94
2023/07/05 19:15:40;;;;;;;2.53;1.20;;;14.70;99.90;;;;;;4882459;29;20140;-95
2023/07/05 19:21:29;;;;;;;3.95;0.88;;;14.70;99.90;;;;;;4867889;29;20041;-93
2023/07/05 19:24:02;;;;;;;2.50;1.13;;;14.10;99.90;;;;;;4848844;29;20049;-95
2023/07/05 19:29:42;;;;;;;2.85;0.80;;;14.50;99.90;;;;;;4813538;29;20086;-96
2023/07/05 19:32:53;;;;;;;1.67;0.90;;;14.60;99.90;;;;;;4837650;29;20100;-94
2023/07/05 19:47:10;;;;;;;2.08;1.02;;;14.30;99.90;;;;;;4813670;29;20064;-94
2023/07/05 19:53:49;;;;;;;4.32;1.00;;;14.20;99.90;;;;;;4793540;29;20045;-95
2023/07/05 20:00:26;;;;;;;3.97;1.13;;;13.90;99.90;;;;;;4878283;29;20510;-96
2023/07/05 20:09:29;;;;;;;3.40;1.00;;;14.00;99.90;;;;;;4766537;29;20043;-95